Terminal Aerodrome Forecast
Issued by NWS Cleveland, OH

Home | Current Version | Previous Version | Graphics & Text | Print | Product List | Glossary Off
Versions: 1 2 3 4 5 6 7 8 9 10 11 12 13 14 15 16 17 18 19

000
FTUS41 KCLE 221617 AAB
TAFYNG
TAF AMD
KYNG 221617Z 2216/2312 20006KT 2SM -SHRA BR BKN005 OVC025
     FM221800 20008KT P6SM OVC025
     FM230300 18006KT 5SM BR OVC015
     FM230700 20010KT 4SM BR OVC009=

USA.gov is the U.S. government's official web portal to all federal, state and local government web resources and services.